LEZG/ZAZ METAR and TAF weather

Enter ICAO airport designator
Station Type Date Time Source
LEZG METAR 2021/09/24 07:00 UTC NOAA

LEZG 240700Z VRB02KT 9999 SCT055 16/13 Q1018


Station Type Date Time Source
LEZG Decoded METAR 2021/09/24 07:00 UTC NOAA

Zaragoza / Aeropuerto, Spain (LEZG) 41-40N 001-01W 258M
Sep 24, 2021 - 03:00 AM EDT / 2021.09.24 0700 UTC
Wind: Variable at 2 MPH (2 KT):0
Visibility: greater than 7 mile(s):0
Sky conditions: partly cloudy
Temperature: 60 F (16 C)
Dew Point: 55 F (13 C)
Relative Humidity: 82%
Pressure (altimeter): 30.06 in. Hg (1018 hPa)
ob: LEZG 240700Z VRB02KT 9999 SCT055 16/13 Q1018
cycle: 7

Station Type Date Time Source
LEZG TAF 2021/09/24 06:27 UTC NOAA

TAF LEZG 240500Z 2406/2506 VRB03KT 9999 FEW025 TX26/2414Z TN16/2406Z
BECMG 2410/2413 10012KT

Example: see airport list